sensor_id;sensor_type;location;lat;lon;timestamp;temperature;humidity
45104;DHT22;30865;51.288;4.572;2023-07-13T00:01:03;22.10;73.00
45104;DHT22;30865;51.288;4.572;2023-07-13T00:03:29;21.90;74.40
45104;DHT22;30865;51.288;4.572;2023-07-13T00:06:00;21.80;74.50
45104;DHT22;30865;51.288;4.572;2023-07-13T00:08:26;21.80;75.50
45104;DHT22;30865;51.288;4.572;2023-07-13T00:10:52;21.70;75.00
45104;DHT22;30865;51.288;4.572;2023-07-13T00:13:19;21.70;74.70
45104;DHT22;30865;51.288;4.572;2023-07-13T00:15:45;21.80;74.50
45104;DHT22;30865;51.288;4.572;2023-07-13T00:18:10;21.60;74.40
45104;DHT22;30865;51.288;4.572;2023-07-13T00:20:36;21.50;74.80
45104;DHT22;30865;51.288;4.572;2023-07-13T00:23:01;21.50;75.20
45104;DHT22;30865;51.288;4.572;2023-07-13T00:25:27;21.40;75.40
45104;DHT22;30865;51.288;4.572;2023-07-13T00:27:56;21.40;76.10
45104;DHT22;30865;51.288;4.572;2023-07-13T00:30:21;21.40;75.90
45104;DHT22;30865;51.288;4.572;2023-07-13T00:32:47;21.20;76.80
45104;DHT22;30865;51.288;4.572;2023-07-13T00:35:14;21.30;77.00
45104;DHT22;30865;51.288;4.572;2023-07-13T00:37:40;21.20;76.10
45104;DHT22;30865;51.288;4.572;2023-07-13T00:40:07;21.20;76.70
45104;DHT22;30865;51.288;4.572;2023-07-13T00:42:33;21.20;76.40
45104;DHT22;30865;51.288;4.572;2023-07-13T00:47:36;21.10;76.00
45104;DHT22;30865;51.288;4.572;2023-07-13T00:50:03;21.10;75.50
45104;DHT22;30865;51.288;4.572;2023-07-13T00:52:29;21.10;75.90
45104;DHT22;30865;51.288;4.572;2023-07-13T00:54:56;21.00;77.80
45104;DHT22;30865;51.288;4.572;2023-07-13T00:57:21;20.90;76.90
45104;DHT22;30865;51.288;4.572;2023-07-13T00:59:52;20.90;77.50
45104;DHT22;30865;51.288;4.572;2023-07-13T01:02:18;20.90;77.30
45104;DHT22;30865;51.288;4.572;2023-07-13T01:04:43;20.90;77.10
45104;DHT22;30865;51.288;4.572;2023-07-13T01:07:10;20.80;76.30
45104;DHT22;30865;51.288;4.572;2023-07-13T01:09:36;20.80;76.30
45104;DHT22;30865;51.288;4.572;2023-07-13T01:12:02;20.70;76.60
45104;DHT22;30865;51.288;4.572;2023-07-13T01:14:28;20.70;76.70
45104;DHT22;30865;51.288;4.572;2023-07-13T01:16:54;20.80;75.80
45104;DHT22;30865;51.288;4.572;2023-07-13T01:19:29;20.80;76.50
45104;DHT22;30865;51.288;4.572;2023-07-13T01:22:02;20.80;76.70
45104;DHT22;30865;51.288;4.572;2023-07-13T01:24:28;20.80;76.00
45104;DHT22;30865;51.288;4.572;2023-07-13T01:26:54;20.80;76.30
45104;DHT22;30865;51.288;4.572;2023-07-13T01:29:21;20.70;77.00
45104;DHT22;30865;51.288;4.572;2023-07-13T01:31:46;20.60;75.80
45104;DHT22;30865;51.288;4.572;2023-07-13T01:34:12;20.50;77.00
45104;DHT22;30865;51.288;4.572;2023-07-13T01:36:37;20.60;76.80
45104;DHT22;30865;51.288;4.572;2023-07-13T01:39:03;20.40;76.30
45104;DHT22;30865;51.288;4.572;2023-07-13T01:41:29;20.40;76.60
45104;DHT22;30865;51.288;4.572;2023-07-13T01:43:54;20.30;77.00
45104;DHT22;30865;51.288;4.572;2023-07-13T01:46:20;20.30;77.20
45104;DHT22;30865;51.288;4.572;2023-07-13T01:48:45;20.20;78.80
45104;DHT22;30865;51.288;4.572;2023-07-13T01:51:11;20.10;79.40
45104;DHT22;30865;51.288;4.572;2023-07-13T01:53:36;20.10;78.00
45104;DHT22;30865;51.288;4.572;2023-07-13T01:56:02;20.10;79.60
45104;DHT22;30865;51.288;4.572;2023-07-13T01:58:27;20.10;79.40
45104;DHT22;30865;51.288;4.572;2023-07-13T02:00:53;20.10;78.50
45104;DHT22;30865;51.288;4.572;2023-07-13T02:03:18;20.10;77.40
45104;DHT22;30865;51.288;4.572;2023-07-13T02:05:45;20.10;80.30
45104;DHT22;30865;51.288;4.572;2023-07-13T02:08:11;20.10;78.00
45104;DHT22;30865;51.288;4.572;2023-07-13T02:10:37;20.00;77.20
45104;DHT22;30865;51.288;4.572;2023-07-13T02:13:05;20.00;77.60
45104;DHT22;30865;51.288;4.572;2023-07-13T02:15:31;19.90;80.50
45104;DHT22;30865;51.288;4.572;2023-07-13T02:17:57;19.70;81.80
45104;DHT22;30865;51.288;4.572;2023-07-13T02:20:24;19.70;82.60
45104;DHT22;30865;51.288;4.572;2023-07-13T02:22:49;19.70;82.40
45104;DHT22;30865;51.288;4.572;2023-07-13T02:25:15;19.60;83.80
45104;DHT22;30865;51.288;4.572;2023-07-13T02:27:40;19.50;84.40
45104;DHT22;30865;51.288;4.572;2023-07-13T02:30:07;19.20;86.70
45104;DHT22;30865;51.288;4.572;2023-07-13T02:32:32;19.20;89.30
45104;DHT22;30865;51.288;4.572;2023-07-13T02:34:59;19.10;90.50
45104;DHT22;30865;51.288;4.572;2023-07-13T02:37:24;18.90;90.90
45104;DHT22;30865;51.288;4.572;2023-07-13T02:39:50;18.90;91.10
45104;DHT22;30865;51.288;4.572;2023-07-13T02:42:15;18.80;91.20
45104;DHT22;30865;51.288;4.572;2023-07-13T02:44:41;18.80;91.10
45104;DHT22;30865;51.288;4.572;2023-07-13T02:47:06;18.90;90.70
45104;DHT22;30865;51.288;4.572;2023-07-13T02:49:32;18.90;90.50
45104;DHT22;30865;51.288;4.572;2023-07-13T02:51:57;18.90;90.30
45104;DHT22;30865;51.288;4.572;2023-07-13T02:54:23;19.00;90.00
45104;DHT22;30865;51.288;4.572;2023-07-13T02:56:49;19.00;90.00
45104;DHT22;30865;51.288;4.572;2023-07-13T02:59:14;18.90;90.50
45104;DHT22;30865;51.288;4.572;2023-07-13T03:01:40;18.70;91.50
45104;DHT22;30865;51.288;4.572;2023-07-13T03:04:06;18.60;92.30
45104;DHT22;30865;51.288;4.572;2023-07-13T03:06:32;18.50;92.80
45104;DHT22;30865;51.288;4.572;2023-07-13T03:08:58;18.50;93.20
45104;DHT22;30865;51.288;4.572;2023-07-13T03:11:25;18.50;93.90
45104;DHT22;30865;51.288;4.572;2023-07-13T03:13:52;18.40;94.40
45104;DHT22;30865;51.288;4.572;2023-07-13T03:16:17;18.30;95.00
45104;DHT22;30865;51.288;4.572;2023-07-13T03:18:43;18.40;95.20
45104;DHT22;30865;51.288;4.572;2023-07-13T03:21:09;18.50;95.30
45104;DHT22;30865;51.288;4.572;2023-07-13T03:23:35;18.50;94.90
45104;DHT22;30865;51.288;4.572;2023-07-13T03:26:09;18.60;94.80
45104;DHT22;30865;51.288;4.572;2023-07-13T03:28:35;18.70;94.60
45104;DHT22;30865;51.288;4.572;2023-07-13T03:31:06;18.80;93.90
45104;DHT22;30865;51.288;4.572;2023-07-13T03:33:32;18.80;93.70
45104;DHT22;30865;51.288;4.572;2023-07-13T03:35:57;18.90;93.70
45104;DHT22;30865;51.288;4.572;2023-07-13T03:38:23;18.90;93.70
45104;DHT22;30865;51.288;4.572;2023-07-13T03:40:49;18.90;93.70
45104;DHT22;30865;51.288;4.572;2023-07-13T03:43:14;18.90;93.90
45104;DHT22;30865;51.288;4.572;2023-07-13T03:45:40;19.10;93.70
45104;DHT22;30865;51.288;4.572;2023-07-13T03:48:06;19.10;93.30
45104;DHT22;30865;51.288;4.572;2023-07-13T03:50:31;19.10;93.20
45104;DHT22;30865;51.288;4.572;2023-07-13T03:52:58;19.00;93.50
45104;DHT22;30865;51.288;4.572;2023-07-13T03:55:24;19.00;93.50
45104;DHT22;30865;51.288;4.572;2023-07-13T03:57:59;19.00;93.70
45104;DHT22;30865;51.288;4.572;2023-07-13T04:00:25;19.10;93.90
45104;DHT22;30865;51.288;4.572;2023-07-13T04:02:51;19.00;94.40
45104;DHT22;30865;51.288;4.572;2023-07-13T04:05:17;18.80;94.80
45104;DHT22;30865;51.288;4.572;2023-07-13T04:07:42;18.90;95.20
45104;DHT22;30865;51.288;4.572;2023-07-13T04:10:08;18.80;95.20
45104;DHT22;30865;51.288;4.572;2023-07-13T04:12:34;18.90;95.30
45104;DHT22;30865;51.288;4.572;2023-07-13T04:14:59;18.90;95.30
45104;DHT22;30865;51.288;4.572;2023-07-13T04:17:25;19.00;95.60
45104;DHT22;30865;51.288;4.572;2023-07-13T04:19:51;19.00;95.40
45104;DHT22;30865;51.288;4.572;2023-07-13T04:22:16;19.00;95.30
45104;DHT22;30865;51.288;4.572;2023-07-13T04:24:42;19.10;95.20
45104;DHT22;30865;51.288;4.572;2023-07-13T04:27:07;19.10;95.10
45104;DHT22;30865;51.288;4.572;2023-07-13T04:29:36;19.10;95.10
45104;DHT22;30865;51.288;4.572;2023-07-13T04:32:02;19.10;95.00
45104;DHT22;30865;51.288;4.572;2023-07-13T04:34:27;19.20;95.10
45104;DHT22;30865;51.288;4.572;2023-07-13T04:36:53;19.50;95.00
45104;DHT22;30865;51.288;4.572;2023-07-13T04:39:25;19.30;95.30
45104;DHT22;30865;51.288;4.572;2023-07-13T04:41:51;19.30;95.40
45104;DHT22;30865;51.288;4.572;2023-07-13T04:44:16;19.40;95.20
45104;DHT22;30865;51.288;4.572;2023-07-13T04:46:42;19.40;95.00
45104;DHT22;30865;51.288;4.572;2023-07-13T04:49:07;19.40;95.10
45104;DHT22;30865;51.288;4.572;2023-07-13T04:51:33;19.20;95.50
45104;DHT22;30865;51.288;4.572;2023-07-13T04:53:58;19.20;95.60
45104;DHT22;30865;51.288;4.572;2023-07-13T04:56:24;19.20;95.80
45104;DHT22;30865;51.288;4.572;2023-07-13T04:58:49;19.30;95.70
45104;DHT22;30865;51.288;4.572;2023-07-13T05:01:15;19.30;95.60
45104;DHT22;30865;51.288;4.572;2023-07-13T05:03:40;19.40;95.60
45104;DHT22;30865;51.288;4.572;2023-07-13T05:06:08;19.50;95.50
45104;DHT22;30865;51.288;4.572;2023-07-13T05:08:35;19.50;95.30
45104;DHT22;30865;51.288;4.572;2023-07-13T05:11:03;19.60;95.00
45104;DHT22;30865;51.288;4.572;2023-07-13T05:13:29;19.60;94.80
45104;DHT22;30865;51.288;4.572;2023-07-13T05:16:00;19.70;94.50
45104;DHT22;30865;51.288;4.572;2023-07-13T05:18:26;19.80;94.10
45104;DHT22;30865;51.288;4.572;2023-07-13T05:21:04;19.90;93.30
45104;DHT22;30865;51.288;4.572;2023-07-13T05:23:32;20.20;92.50
45104;DHT22;30865;51.288;4.572;2023-07-13T05:25:58;20.40;91.10
45104;DHT22;30865;51.288;4.572;2023-07-13T05:28:25;20.50;91.00
45104;DHT22;30865;51.288;4.572;2023-07-13T05:30:50;20.60;89.00
45104;DHT22;30865;51.288;4.572;2023-07-13T05:33:16;20.70;81.50
45104;DHT22;30865;51.288;4.572;2023-07-13T05:35:42;20.70;82.00
45104;DHT22;30865;51.288;4.572;2023-07-13T05:38:07;20.90;78.90
45104;DHT22;30865;51.288;4.572;2023-07-13T05:40:33;21.20;77.10
45104;DHT22;30865;51.288;4.572;2023-07-13T05:42:58;21.00;76.70
45104;DHT22;30865;51.288;4.572;2023-07-13T05:45:24;21.00;76.30
45104;DHT22;30865;51.288;4.572;2023-07-13T05:47:50;20.90;76.10
45104;DHT22;30865;51.288;4.572;2023-07-13T05:50:15;20.80;76.70
45104;DHT22;30865;51.288;4.572;2023-07-13T05:52:41;20.90;77.80
45104;DHT22;30865;51.288;4.572;2023-07-13T05:55:07;21.00;77.10
45104;DHT22;30865;51.288;4.572;2023-07-13T05:57:32;21.00;76.50
45104;DHT22;30865;51.288;4.572;2023-07-13T05:59:58;21.10;75.70
45104;DHT22;30865;51.288;4.572;2023-07-13T06:02:23;21.00;75.30
45104;DHT22;30865;51.288;4.572;2023-07-13T06:04:49;21.00;75.00
45104;DHT22;30865;51.288;4.572;2023-07-13T06:07:15;20.80;75.10
45104;DHT22;30865;51.288;4.572;2023-07-13T06:09:40;20.90;75.60
45104;DHT22;30865;51.288;4.572;2023-07-13T06:12:06;20.90;75.50
45104;DHT22;30865;51.288;4.572;2023-07-13T06:14:32;21.20;76.00
45104;DHT22;30865;51.288;4.572;2023-07-13T06:16:57;21.30;75.30
45104;DHT22;30865;51.288;4.572;2023-07-13T06:19:23;21.30;74.90
45104;DHT22;30865;51.288;4.572;2023-07-13T06:21:49;21.60;74.20
45104;DHT22;30865;51.288;4.572;2023-07-13T06:24:14;21.60;72.00
45104;DHT22;30865;51.288;4.572;2023-07-13T06:26:40;21.40;71.60
45104;DHT22;30865;51.288;4.572;2023-07-13T06:29:05;21.40;72.00
45104;DHT22;30865;51.288;4.572;2023-07-13T06:31:31;21.70;71.40
45104;DHT22;30865;51.288;4.572;2023-07-13T06:33:56;22.10;70.60
45104;DHT22;30865;51.288;4.572;2023-07-13T06:36:22;22.10;69.20
45104;DHT22;30865;51.288;4.572;2023-07-13T06:38:48;22.00;69.40
45104;DHT22;30865;51.288;4.572;2023-07-13T06:41:13;22.20;68.30
45104;DHT22;30865;51.288;4.572;2023-07-13T06:43:39;22.30;67.10
45104;DHT22;30865;51.288;4.572;2023-07-13T06:46:04;22.70;66.70
45104;DHT22;30865;51.288;4.572;2023-07-13T06:48:30;22.50;66.00
45104;DHT22;30865;51.288;4.572;2023-07-13T06:50:56;22.40;65.80
45104;DHT22;30865;51.288;4.572;2023-07-13T06:53:22;22.20;66.30
45104;DHT22;30865;51.288;4.572;2023-07-13T06:55:48;23.00;65.00
45104;DHT22;30865;51.288;4.572;2023-07-13T06:58:15;23.40;62.90
45104;DHT22;30865;51.288;4.572;2023-07-13T07:00:41;23.50;62.00
45104;DHT22;30865;51.288;4.572;2023-07-13T07:03:06;23.50;61.30
45104;DHT22;30865;51.288;4.572;2023-07-13T07:05:32;23.50;61.30
45104;DHT22;30865;51.288;4.572;2023-07-13T07:07:58;23.80;60.60
45104;DHT22;30865;51.288;4.572;2023-07-13T07:10:25;23.80;59.10
45104;DHT22;30865;51.288;4.572;2023-07-13T07:12:50;24.00;59.40
45104;DHT22;30865;51.288;4.572;2023-07-13T07:15:16;23.90;57.70
45104;DHT22;30865;51.288;4.572;2023-07-13T07:17:45;23.30;57.40
45104;DHT22;30865;51.288;4.572;2023-07-13T07:20:11;23.90;57.80
45104;DHT22;30865;51.288;4.572;2023-07-13T07:22:36;23.70;57.40
45104;DHT22;30865;51.288;4.572;2023-07-13T07:25:02;23.70;56.80
45104;DHT22;30865;51.288;4.572;2023-07-13T07:27:28;23.90;57.00
45104;DHT22;30865;51.288;4.572;2023-07-13T07:29:53;24.00;55.70
45104;DHT22;30865;51.288;4.572;2023-07-13T07:32:20;23.90;56.30
45104;DHT22;30865;51.288;4.572;2023-07-13T07:34:45;24.20;55.10
45104;DHT22;30865;51.288;4.572;2023-07-13T07:37:13;24.30;54.60
45104;DHT22;30865;51.288;4.572;2023-07-13T07:39:38;24.10;53.90
45104;DHT22;30865;51.288;4.572;2023-07-13T07:42:05;23.90;53.60
45104;DHT22;30865;51.288;4.572;2023-07-13T07:44:31;23.50;53.90
45104;DHT22;30865;51.288;4.572;2023-07-13T07:46:57;23.70;53.90
45104;DHT22;30865;51.288;4.572;2023-07-13T07:49:23;23.90;53.50
45104;DHT22;30865;51.288;4.572;2023-07-13T07:51:48;24.30;52.90
45104;DHT22;30865;51.288;4.572;2023-07-13T07:54:14;24.70;51.40
45104;DHT22;30865;51.288;4.572;2023-07-13T07:56:40;24.50;53.20
45104;DHT22;30865;51.288;4.572;2023-07-13T07:59:05;24.80;52.50
45104;DHT22;30865;51.288;4.572;2023-07-13T08:01:31;24.50;52.70
45104;DHT22;30865;51.288;4.572;2023-07-13T08:03:56;24.70;53.20
45104;DHT22;30865;51.288;4.572;2023-07-13T08:06:22;24.90;51.90
45104;DHT22;30865;51.288;4.572;2023-07-13T08:08:48;24.70;51.70
45104;DHT22;30865;51.288;4.572;2023-07-13T08:11:13;24.90;51.20
45104;DHT22;30865;51.288;4.572;2023-07-13T08:13:39;24.90;51.30
45104;DHT22;30865;51.288;4.572;2023-07-13T08:16:06;25.10;50.80
45104;DHT22;30865;51.288;4.572;2023-07-13T08:18:31;25.40;50.00
45104;DHT22;30865;51.288;4.572;2023-07-13T08:20:57;24.50;50.90
45104;DHT22;30865;51.288;4.572;2023-07-13T08:23:24;25.10;51.00
45104;DHT22;30865;51.288;4.572;2023-07-13T08:25:54;24.70;50.50
45104;DHT22;30865;51.288;4.572;2023-07-13T08:28:20;24.70;50.90
45104;DHT22;30865;51.288;4.572;2023-07-13T08:30:46;24.80;50.30
45104;DHT22;30865;51.288;4.572;2023-07-13T08:33:21;25.20;49.80
45104;DHT22;30865;51.288;4.572;2023-07-13T08:35:50;25.50;49.00
45104;DHT22;30865;51.288;4.572;2023-07-13T08:38:16;25.50;48.00
45104;DHT22;30865;51.288;4.572;2023-07-13T08:40:42;25.70;47.20
45104;DHT22;30865;51.288;4.572;2023-07-13T08:43:13;25.10;47.60
45104;DHT22;30865;51.288;4.572;2023-07-13T08:45:47;25.50;47.10
45104;DHT22;30865;51.288;4.572;2023-07-13T08:48:35;25.40;47.10
45104;DHT22;30865;51.288;4.572;2023-07-13T08:51:12;26.00;46.90
45104;DHT22;30865;51.288;4.572;2023-07-13T08:53:46;26.30;46.00
45104;DHT22;30865;51.288;4.572;2023-07-13T08:56:17;25.90;47.10
45104;DHT22;30865;51.288;4.572;2023-07-13T08:58:44;26.10;46.70
45104;DHT22;30865;51.288;4.572;2023-07-13T09:01:55;26.10;46.30
45104;DHT22;30865;51.288;4.572;2023-07-13T09:04:25;26.20;46.80
45104;DHT22;30865;51.288;4.572;2023-07-13T09:09:44;26.60;46.00
45104;DHT22;30865;51.288;4.572;2023-07-13T09:15:31;26.70;46.20
45104;DHT22;30865;51.288;4.572;2023-07-13T09:18:03;26.30;45.60
45104;DHT22;30865;51.288;4.572;2023-07-13T09:20:42;26.60;45.90
45104;DHT22;30865;51.288;4.572;2023-07-13T09:23:15;26.80;45.70
45104;DHT22;30865;51.288;4.572;2023-07-13T09:25:44;26.60;46.40
45104;DHT22;30865;51.288;4.572;2023-07-13T09:31:03;27.10;45.70
45104;DHT22;30865;51.288;4.572;2023-07-13T09:33:29;27.40;44.80
45104;DHT22;30865;51.288;4.572;2023-07-13T09:35:57;27.20;44.20
45104;DHT22;30865;51.288;4.572;2023-07-13T09:38:24;26.80;44.80
45104;DHT22;30865;51.288;4.572;2023-07-13T09:44:13;27.10;44.90
45104;DHT22;30865;51.288;4.572;2023-07-13T09:46:59;26.60;44.80
45104;DHT22;30865;51.288;4.572;2023-07-13T09:49:27;26.70;44.50
45104;DHT22;30865;51.288;4.572;2023-07-13T09:52:02;27.30;44.20
45104;DHT22;30865;51.288;4.572;2023-07-13T09:54:28;27.40;43.70
45104;DHT22;30865;51.288;4.572;2023-07-13T09:56:58;27.10;44.30
45104;DHT22;30865;51.288;4.572;2023-07-13T09:59:30;27.40;43.80
45104;DHT22;30865;51.288;4.572;2023-07-13T10:01:56;27.30;43.60
45104;DHT22;30865;51.288;4.572;2023-07-13T10:04:33;27.40;43.10
45104;DHT22;30865;51.288;4.572;2023-07-13T10:07:08;27.00;43.60
45104;DHT22;30865;51.288;4.572;2023-07-13T10:09:34;26.90;43.30
45104;DHT22;30865;51.288;4.572;2023-07-13T10:11:59;26.60;44.20
45104;DHT22;30865;51.288;4.572;2023-07-13T10:14:25;26.90;44.10
45104;DHT22;30865;51.288;4.572;2023-07-13T10:16:58;26.40;43.90
45104;DHT22;30865;51.288;4.572;2023-07-13T10:19:27;26.50;44.50
45104;DHT22;30865;51.288;4.572;2023-07-13T10:22:02;26.70;43.90
45104;DHT22;30865;51.288;4.572;2023-07-13T10:24:32;26.60;43.90
45104;DHT22;30865;51.288;4.572;2023-07-13T10:27:03;27.10;43.70
45104;DHT22;30865;51.288;4.572;2023-07-13T10:29:36;27.60;43.30
45104;DHT22;30865;51.288;4.572;2023-07-13T10:32:09;27.50;43.30
45104;DHT22;30865;51.288;4.572;2023-07-13T10:34:35;27.80;42.00
45104;DHT22;30865;51.288;4.572;2023-07-13T10:37:01;28.10;41.80
45104;DHT22;30865;51.288;4.572;2023-07-13T10:39:28;28.30;42.60
45104;DHT22;30865;51.288;4.572;2023-07-13T10:41:58;28.10;41.50
45104;DHT22;30865;51.288;4.572;2023-07-13T10:44:30;28.20;41.00
45104;DHT22;30865;51.288;4.572;2023-07-13T10:46:59;28.30;41.30
45104;DHT22;30865;51.288;4.572;2023-07-13T10:49:27;27.70;42.40
45104;DHT22;30865;51.288;4.572;2023-07-13T10:51:53;27.90;41.70
45104;DHT22;30865;51.288;4.572;2023-07-13T10:54:33;27.90;41.30
45104;DHT22;30865;51.288;4.572;2023-07-13T10:59:34;27.90;41.60
45104;DHT22;30865;51.288;4.572;2023-07-13T11:04:43;27.50;42.00
45104;DHT22;30865;51.288;4.572;2023-07-13T11:07:28;28.10;41.70
45104;DHT22;30865;51.288;4.572;2023-07-13T11:09:59;28.20;41.20
45104;DHT22;30865;51.288;4.572;2023-07-13T11:20:22;28.80;40.10
45104;DHT22;30865;51.288;4.572;2023-07-13T11:22:52;28.50;39.70
45104;DHT22;30865;51.288;4.572;2023-07-13T11:25:27;29.00;39.60
45104;DHT22;30865;51.288;4.572;2023-07-13T11:33:27;28.60;39.80
45104;DHT22;30865;51.288;4.572;2023-07-13T11:36:20;28.00;40.50
45104;DHT22;30865;51.288;4.572;2023-07-13T11:39:16;28.00;42.50
45104;DHT22;30865;51.288;4.572;2023-07-13T11:41:57;27.70;43.00
45104;DHT22;30865;51.288;4.572;2023-07-13T11:44:26;27.20;42.10
45104;DHT22;30865;51.288;4.572;2023-07-13T11:46:57;27.90;41.90
45104;DHT22;30865;51.288;4.572;2023-07-13T11:49:29;27.70;41.10
45104;DHT22;30865;51.288;4.572;2023-07-13T11:51:55;27.70;41.70
45104;DHT22;30865;51.288;4.572;2023-07-13T11:54:26;27.30;42.40
45104;DHT22;30865;51.288;4.572;2023-07-13T11:56:54;27.00;42.70
45104;DHT22;30865;51.288;4.572;2023-07-13T11:59:20;26.60;43.20
45104;DHT22;30865;51.288;4.572;2023-07-13T12:01:51;26.70;43.50
45104;DHT22;30865;51.288;4.572;2023-07-13T12:04:33;27.00;43.00
45104;DHT22;30865;51.288;4.572;2023-07-13T12:07:18;27.50;42.70
45104;DHT22;30865;51.288;4.572;2023-07-13T12:09:44;27.60;41.50
45104;DHT22;30865;51.288;4.572;2023-07-13T12:12:16;27.50;40.70
45104;DHT22;30865;51.288;4.572;2023-07-13T12:14:43;28.00;41.00
45104;DHT22;30865;51.288;4.572;2023-07-13T12:17:16;27.50;42.10
45104;DHT22;30865;51.288;4.572;2023-07-13T12:19:43;27.60;41.50
45104;DHT22;30865;51.288;4.572;2023-07-13T12:22:12;27.40;41.70
45104;DHT22;30865;51.288;4.572;2023-07-13T12:24:39;28.10;40.70
45104;DHT22;30865;51.288;4.572;2023-07-13T12:27:05;28.60;40.00
45104;DHT22;30865;51.288;4.572;2023-07-13T12:29:32;28.30;39.50
45104;DHT22;30865;51.288;4.572;2023-07-13T12:31:58;28.90;39.70
45104;DHT22;30865;51.288;4.572;2023-07-13T12:34:26;28.80;38.80
45104;DHT22;30865;51.288;4.572;2023-07-13T12:37:00;28.70;38.50
45104;DHT22;30865;51.288;4.572;2023-07-13T12:39:36;28.60;39.20
45104;DHT22;30865;51.288;4.572;2023-07-13T12:42:23;29.10;38.70
45104;DHT22;30865;51.288;4.572;2023-07-13T12:44:54;28.90;38.80
45104;DHT22;30865;51.288;4.572;2023-07-13T12:47:21;29.10;38.60
45104;DHT22;30865;51.288;4.572;2023-07-13T12:49:55;28.60;39.00
45104;DHT22;30865;51.288;4.572;2023-07-13T12:52:30;27.50;40.00
45104;DHT22;30865;51.288;4.572;2023-07-13T12:55:04;27.40;40.20
45104;DHT22;30865;51.288;4.572;2023-07-13T12:57:31;26.80;41.00
45104;DHT22;30865;51.288;4.572;2023-07-13T12:59:56;27.10;40.20
45104;DHT22;30865;51.288;4.572;2023-07-13T13:02:30;27.20;40.90
45104;DHT22;30865;51.288;4.572;2023-07-13T13:04:58;27.60;40.50
45104;DHT22;30865;51.288;4.572;2023-07-13T13:07:25;28.00;39.50
45104;DHT22;30865;51.288;4.572;2023-07-13T13:09:50;28.10;39.40
45104;DHT22;30865;51.288;4.572;2023-07-13T13:12:17;28.40;38.70
45104;DHT22;30865;51.288;4.572;2023-07-13T13:14:43;28.30;38.50
45104;DHT22;30865;51.288;4.572;2023-07-13T13:17:21;28.90;38.10
45104;DHT22;30865;51.288;4.572;2023-07-13T13:19:49;28.60;37.60
45104;DHT22;30865;51.288;4.572;2023-07-13T13:22:15;28.90;38.50
45104;DHT22;30865;51.288;4.572;2023-07-13T13:24:40;28.90;38.20
45104;DHT22;30865;51.288;4.572;2023-07-13T13:27:30;28.40;37.60
45104;DHT22;30865;51.288;4.572;2023-07-13T13:29:55;29.00;37.60
45104;DHT22;30865;51.288;4.572;2023-07-13T13:32:20;29.60;36.20
45104;DHT22;30865;51.288;4.572;2023-07-13T13:34:46;30.00;35.90
45104;DHT22;30865;51.288;4.572;2023-07-13T13:37:20;30.30;35.60
45104;DHT22;30865;51.288;4.572;2023-07-13T13:39:46;30.00;34.90
45104;DHT22;30865;51.288;4.572;2023-07-13T13:42:12;30.30;35.20
45104;DHT22;30865;51.288;4.572;2023-07-13T13:44:38;30.40;35.50
45104;DHT22;30865;51.288;4.572;2023-07-13T13:47:28;30.50;34.80
45104;DHT22;30865;51.288;4.572;2023-07-13T13:49:54;30.80;34.00
45104;DHT22;30865;51.288;4.572;2023-07-13T13:52:20;30.70;34.70
45104;DHT22;30865;51.288;4.572;2023-07-13T13:54:45;30.70;34.90
45104;DHT22;30865;51.288;4.572;2023-07-13T13:57:11;30.50;34.50
45104;DHT22;30865;51.288;4.572;2023-07-13T13:59:38;30.40;33.70
45104;DHT22;30865;51.288;4.572;2023-07-13T14:02:32;30.70;33.90
45104;DHT22;30865;51.288;4.572;2023-07-13T14:04:59;30.80;33.70
45104;DHT22;30865;51.288;4.572;2023-07-13T14:07:26;31.00;34.10
45104;DHT22;30865;51.288;4.572;2023-07-13T14:09:54;30.80;34.00
45104;DHT22;30865;51.288;4.572;2023-07-13T14:12:20;30.70;32.80
45104;DHT22;30865;51.288;4.572;2023-07-13T14:14:46;31.10;32.80
45104;DHT22;30865;51.288;4.572;2023-07-13T14:17:19;30.80;32.60
45104;DHT22;30865;51.288;4.572;2023-07-13T14:19:47;30.00;34.40
45104;DHT22;30865;51.288;4.572;2023-07-13T14:22:16;30.00;35.10
45104;DHT22;30865;51.288;4.572;2023-07-13T14:24:41;29.40;35.10
45104;DHT22;30865;51.288;4.572;2023-07-13T14:27:10;30.20;34.70
45104;DHT22;30865;51.288;4.572;2023-07-13T14:29:36;30.50;33.10
45104;DHT22;30865;51.288;4.572;2023-07-13T14:32:02;30.40;33.40
45104;DHT22;30865;51.288;4.572;2023-07-13T14:34:27;29.90;34.60
45104;DHT22;30865;51.288;4.572;2023-07-13T14:36:53;29.40;35.20
45104;DHT22;30865;51.288;4.572;2023-07-13T14:39:21;28.70;36.80
45104;DHT22;30865;51.288;4.572;2023-07-13T14:41:50;28.60;37.40
45104;DHT22;30865;51.288;4.572;2023-07-13T14:44:20;28.80;37.30
45104;DHT22;30865;51.288;4.572;2023-07-13T14:46:46;28.70;37.10
45104;DHT22;30865;51.288;4.572;2023-07-13T14:49:30;28.30;36.90
45104;DHT22;30865;51.288;4.572;2023-07-13T14:51:58;28.20;36.80
45104;DHT22;30865;51.288;4.572;2023-07-13T14:54:24;28.60;36.10
45104;DHT22;30865;51.288;4.572;2023-07-13T14:56:50;28.80;35.90
45104;DHT22;30865;51.288;4.572;2023-07-13T14:59:16;28.70;36.10
45104;DHT22;30865;51.288;4.572;2023-07-13T15:01:44;29.50;36.40
45104;DHT22;30865;51.288;4.572;2023-07-13T15:04:10;30.70;34.90
45104;DHT22;30865;51.288;4.572;2023-07-13T15:06:57;31.50;33.10
45104;DHT22;30865;51.288;4.572;2023-07-13T15:09:23;32.40;32.50
45104;DHT22;30865;51.288;4.572;2023-07-13T15:11:52;32.00;32.20
45104;DHT22;30865;51.288;4.572;2023-07-13T15:14:17;32.80;31.90
45104;DHT22;30865;51.288;4.572;2023-07-13T15:16:49;32.10;31.90
45104;DHT22;30865;51.288;4.572;2023-07-13T15:19:18;31.60;33.00
45104;DHT22;30865;51.288;4.572;2023-07-13T15:21:43;31.80;32.60
45104;DHT22;30865;51.288;4.572;2023-07-13T15:24:10;31.90;32.80
45104;DHT22;30865;51.288;4.572;2023-07-13T15:26:36;30.70;33.90
45104;DHT22;30865;51.288;4.572;2023-07-13T15:29:02;29.70;35.30
45104;DHT22;30865;51.288;4.572;2023-07-13T15:31:28;30.70;35.80
45104;DHT22;30865;51.288;4.572;2023-07-13T15:33:57;31.50;34.40
45104;DHT22;30865;51.288;4.572;2023-07-13T15:36:24;31.90;33.20
45104;DHT22;30865;51.288;4.572;2023-07-13T15:38:52;31.70;33.40
45104;DHT22;30865;51.288;4.572;2023-07-13T15:41:23;31.30;32.30
45104;DHT22;30865;51.288;4.572;2023-07-13T15:43:50;31.00;33.30
45104;DHT22;30865;51.288;4.572;2023-07-13T15:46:21;31.30;33.70
45104;DHT22;30865;51.288;4.572;2023-07-13T15:48:51;32.00;33.20
45104;DHT22;30865;51.288;4.572;2023-07-13T15:51:29;32.50;31.70
45104;DHT22;30865;51.288;4.572;2023-07-13T15:53:59;32.70;31.30
45104;DHT22;30865;51.288;4.572;2023-07-13T15:56:29;33.10;30.60
45104;DHT22;30865;51.288;4.572;2023-07-13T15:58:56;32.60;30.80
45104;DHT22;30865;51.288;4.572;2023-07-13T16:01:23;32.30;32.40
45104;DHT22;30865;51.288;4.572;2023-07-13T16:03:49;32.30;31.70
45104;DHT22;30865;51.288;4.572;2023-07-13T16:06:19;32.60;31.50
45104;DHT22;30865;51.288;4.572;2023-07-13T16:08:49;31.90;32.50